Time;durP1;ratioP1;P1;durP2;ratioP2;P2;SDS_P1;SDS_P2;PMS_P1;PMS_P2;Temp;Humidity;BMP_temperature;BMP_pressure;BME280_temperature;BME280_humidity;BME280_pressure;Samples;Min_cycle;Max_cycle;Signal;HPM_P1;HPM_P2
2022/06/19 00:01:14;;;;;;;9.80;6.18;;;;;;;12.97;100.00;95436.72;5037364;28;20044;-69
2022/06/19 00:03:46;;;;;;;8.10;6.22;;;;;;;12.93;100.00;95425.13;5035988;28;20041;-69
2022/06/19 00:06:14;;;;;;;9.35;6.90;;;;;;;12.98;100.00;95433.06;5039519;28;20155;-70
2022/06/19 00:08:42;;;;;;;6.50;5.57;;;;;;;13.00;100.00;95436.25;5039023;28;20492;-70
2022/06/19 00:11:14;;;;;;;6.60;5.45;;;;;;;12.94;100.00;95426.69;5040456;28;20041;-70
2022/06/19 00:13:41;;;;;;;6.82;5.22;;;;;;;12.84;100.00;95431.72;5036789;28;20698;-69
2022/06/19 00:16:08;;;;;;;5.72;4.75;;;;;;;12.63;100.00;95428.69;5044167;28;20209;-70
2022/06/19 00:18:38;;;;;;;6.25;4.72;;;;;;;12.54;100.00;95427.44;5081082;28;20669;-69
2022/06/19 00:21:07;;;;;;;7.38;5.10;;;;;;;12.55;100.00;95429.84;5082369;28;20051;-70
2022/06/19 00:23:35;;;;;;;6.10;4.60;;;;;;;12.55;100.00;95431.63;5060922;28;20205;-70
2022/06/19 00:26:03;;;;;;;6.45;4.90;;;;;;;12.47;100.00;95442.44;5042630;28;20049;-69
2022/06/19 00:28:30;;;;;;;7.38;4.32;;;;;;;12.41;100.00;95439.72;5076997;28;20053;-69
2022/06/19 00:30:56;;;;;;;6.82;5.38;;;;;;;12.30;100.00;95437.91;5083058;28;20040;-69
2022/06/19 00:33:23;;;;;;;6.72;5.25;;;;;;;12.29;100.00;95451.97;5082708;28;20086;-70
2022/06/19 00:35:51;;;;;;;9.05;5.47;;;;;;;12.29;100.00;95446.75;5078129;28;20543;-70
2022/06/19 00:38:18;;;;;;;6.80;5.30;;;;;;;12.22;100.00;95449.44;5083440;28;20048;-70
2022/06/19 00:40:44;;;;;;;5.60;4.70;;;;;;;12.19;100.00;95441.28;5062154;28;20521;-69
2022/06/19 00:43:11;;;;;;;6.22;5.03;;;;;;;12.21;100.00;95445.25;5081053;28;20076;-70
2022/06/19 00:45:42;;;;;;;7.03;5.07;;;;;;;12.26;100.00;95441.19;5081996;28;21472;-70
2022/06/19 00:48:28;;;;;;;6.03;5.10;;;;;;;12.24;100.00;95447.44;5082943;28;20666;-70
2022/06/19 00:51:00;;;;;;;10.10;6.03;;;;;;;12.19;100.00;95431.66;5078356;28;20044;-69
2022/06/19 00:53:36;;;;;;;7.43;5.30;;;;;;;12.27;100.00;95454.00;5062613;28;20052;-69
2022/06/19 00:56:03;;;;;;;6.50;5.18;;;;;;;12.24;100.00;95444.00;5081495;28;20605;-70
2022/06/19 00:58:34;;;;;;;6.72;5.03;;;;;;;12.19;100.00;95434.25;5082921;28;20406;-69
2022/06/19 01:01:16;;;;;;;6.70;4.70;;;;;;;12.21;100.00;95439.25;5078212;28;20040;-70
2022/06/19 01:03:45;;;;;;;6.13;4.97;;;;;;;12.17;100.00;95449.34;5084329;28;20036;-69
2022/06/19 01:06:13;;;;;;;8.45;5.22;;;;;;;12.00;100.00;95433.53;5080659;28;20035;-69
2022/06/19 01:08:40;;;;;;;6.75;5.68;;;;;;;11.98;100.00;95440.81;5083975;28;20547;-70
2022/06/19 01:11:07;;;;;;;21.45;6.55;;;;;;;11.88;100.00;95435.28;5085019;28;20040;-70
2022/06/19 01:13:36;;;;;;;6.88;5.07;;;;;;;11.79;100.00;95436.63;5088066;28;20036;-70
2022/06/19 01:16:05;;;;;;;9.15;5.85;;;;;;;11.73;100.00;95434.94;5082151;28;20040;-70
2022/06/19 01:18:33;;;;;;;6.70;5.18;;;;;;;11.62;100.00;95431.28;5084118;28;20044;-70
2022/06/19 01:21:31;;;;;;;9.05;6.40;;;;;;;11.67;100.00;95429.56;5084757;28;20050;-70
2022/06/19 01:24:04;;;;;;;8.60;6.28;;;;;;;11.61;100.00;95435.69;5082161;28;20048;-70
2022/06/19 01:26:38;;;;;;;6.93;5.88;;;;;;;11.60;100.00;95436.69;5085459;28;20048;-70
2022/06/19 01:29:05;;;;;;;9.25;6.63;;;;;;;11.64;100.00;95434.44;5084996;28;20040;-70
2022/06/19 01:31:36;;;;;;;17.42;7.20;;;;;;;11.67;100.00;95434.00;5064121;28;20043;-70
2022/06/19 01:37:14;;;;;;;11.85;7.28;;;;;;;11.58;100.00;95430.91;5070791;28;20048;-70
2022/06/19 01:39:45;;;;;;;12.20;7.97;;;;;;;11.66;100.00;95433.19;5078746;28;20032;-70
2022/06/19 01:42:13;;;;;;;9.48;7.38;;;;;;;11.64;100.00;95422.19;5082078;28;20052;-70
2022/06/19 01:44:42;;;;;;;9.02;7.20;;;;;;;11.60;100.00;95423.66;5079813;28;20048;-70
2022/06/19 01:47:10;;;;;;;15.77;7.95;;;;;;;11.53;100.00;95433.38;5083402;28;20772;-70
2022/06/19 01:49:40;;;;;;;10.70;7.22;;;;;;;11.36;100.00;95414.16;5082155;28;20040;-70
2022/06/19 01:52:07;;;;;;;11.10;7.32;;;;;;;11.45;100.00;95436.28;5082370;28;20038;-70
2022/06/19 01:54:38;;;;;;;14.27;8.55;;;;;;;11.45;100.00;95436.28;5059733;28;20044;-70
2022/06/19 01:57:08;;;;;;;7.55;5.78;;;;;;;11.40;100.00;95420.53;5063521;28;20080;-70
2022/06/19 01:59:39;;;;;;;11.60;7.25;;;;;;;11.41;100.00;95435.94;5078195;28;20040;-70
2022/06/19 02:02:09;;;;;;;10.32;7.97;;;;;;;11.38;100.00;95438.19;5081618;28;20345;-69
2022/06/19 02:04:36;;;;;;;14.73;8.25;;;;;;;11.38;100.00;95432.97;5078383;28;20047;-70
2022/06/19 02:07:07;;;;;;;11.18;7.82;;;;;;;11.39;100.00;95434.59;5083599;28;20060;-70
2022/06/19 02:09:35;;;;;;;10.93;8.07;;;;;;;11.32;100.00;95426.03;5062228;28;20058;-68
2022/06/19 02:12:04;;;;;;;10.90;8.65;;;;;;;11.27;100.00;95435.34;5081170;28;20040;-68
2022/06/19 02:14:32;;;;;;;15.40;8.40;;;;;;;11.10;100.00;95418.69;5080922;28;20051;-68
2022/06/19 02:17:06;;;;;;;13.25;9.02;;;;;;;11.08;100.00;95434.56;5081557;28;20067;-69
2022/06/19 02:19:34;;;;;;;15.85;10.38;;;;;;;11.05;100.00;95452.44;5080388;28;20059;-68
2022/06/19 02:22:00;;;;;;;18.45;11.40;;;;;;;11.00;100.00;95449.69;5080220;28;20520;-68
2022/06/19 02:24:27;;;;;;;19.95;11.10;;;;;;;11.01;100.00;95446.06;5083842;28;20047;-68
2022/06/19 02:26:56;;;;;;;17.88;10.85;;;;;;;11.10;100.00;95455.19;5061492;28;20054;-68
2022/06/19 02:29:23;;;;;;;16.63;10.55;;;;;;;11.14;100.00;95445.13;5064462;28;20044;-68
2022/06/19 02:31:56;;;;;;;16.42;10.40;;;;;;;11.18;100.00;95441.88;5078901;28;20032;-68
2022/06/19 02:34:34;;;;;;;14.38;9.68;;;;;;;11.18;100.00;95441.88;5084268;28;20032;-68
2022/06/19 02:37:10;;;;;;;17.77;10.07;;;;;;;11.19;100.00;95443.44;5083072;28;20032;-68
2022/06/19 02:39:53;;;;;;;14.82;9.60;;;;;;;11.21;100.00;95454.44;5081215;28;20068;-68
2022/06/19 02:42:20;;;;;;;30.38;21.17;;;;;;;11.18;100.00;95452.31;5081136;28;20055;-69
2022/06/19 02:44:50;;;;;;;43.88;28.13;;;;;;;11.20;100.00;95450.25;5082146;28;20709;-68
2022/06/19 02:47:17;;;;;;;50.95;33.60;;;;;;;11.17;100.00;95468.94;5078421;28;20039;-68
2022/06/19 02:49:45;;;;;;;49.72;29.45;;;;;;;11.21;100.00;95467.47;5084644;28;20031;-68
2022/06/19 02:52:12;;;;;;;33.72;22.77;;;;;;;11.17;100.00;95450.69;5083722;28;20048;-69
2022/06/19 02:54:40;;;;;;;31.40;21.10;;;;;;;11.12;100.00;95458.38;5078995;28;20069;-68
2022/06/19 02:57:09;;;;;;;26.20;18.20;;;;;;;10.87;100.00;95435.78;5082977;28;20716;-68
2022/06/19 02:59:36;;;;;;;21.33;14.75;;;;;;;11.05;100.00;95468.06;5080845;28;20102;-68
2022/06/19 03:02:04;;;;;;;20.17;13.50;;;;;;;10.96;100.00;95464.16;5062064;28;20044;-68
2022/06/19 03:04:36;;;;;;;20.15;10.07;;;;;;;10.87;100.00;95467.06;5079897;28;20047;-68
2022/06/19 03:07:04;;;;;;;18.67;11.15;;;;;;;10.84;100.00;95472.72;5082247;28;20039;-68
2022/06/19 03:09:30;;;;;;;17.67;11.02;;;;;;;10.81;100.00;95467.94;5082392;28;20032;-68
2022/06/19 03:11:57;;;;;;;21.38;13.40;;;;;;;10.79;100.00;95469.97;5090057;27;20060;-68
2022/06/19 03:14:24;;;;;;;20.83;14.27;;;;;;;10.79;100.00;95475.16;5083102;28;20043;-68
2022/06/19 03:16:52;;;;;;;25.70;15.02;;;;;;;10.77;100.00;95479.81;5082426;28;20059;-68
2022/06/19 03:19:19;;;;;;;21.50;14.48;;;;;;;10.74;100.00;95482.84;5081688;28;20066;-68
2022/06/19 03:21:49;;;;;;;24.80;15.13;;;;;;;10.79;100.00;95485.59;5085342;28;20047;-68
2022/06/19 03:24:16;;;;;;;25.67;16.13;;;;;;;10.88;100.00;95481.69;5059589;28;20036;-68
2022/06/19 03:26:43;;;;;;;26.60;16.35;;;;;;;10.94;100.00;95481.84;5081135;28;20044;-68
2022/06/19 03:29:10;;;;;;;21.75;14.80;;;;;;;10.98;100.00;95485.59;5081994;28;20694;-68
2022/06/19 03:31:37;;;;;;;16.88;12.80;;;;;;;11.02;100.00;95484.97;5075609;28;20044;-68
2022/06/19 03:34:04;;;;;;;20.08;12.63;;;;;;;11.10;100.00;95482.03;5082278;28;20046;-68
2022/06/19 03:36:32;;;;;;;20.33;12.73;;;;;;;11.17;100.00;95487.19;5079563;28;20040;-68
2022/06/19 03:38:59;;;;;;;16.17;10.82;;;;;;;11.26;100.00;95491.09;5083707;28;20078;-68
2022/06/19 03:41:25;;;;;;;18.20;11.25;;;;;;;11.37;100.00;95475.75;5081987;28;20036;-68
2022/06/19 03:43:52;;;;;;;18.60;8.45;;;;;;;11.42;100.00;95478.50;5079706;28;20046;-68
2022/06/19 03:46:20;;;;;;;19.50;8.98;;;;;;;11.55;100.00;95483.53;5085091;28;20423;-68
2022/06/19 03:48:50;;;;;;;12.57;8.80;;;;;;;11.74;100.00;95488.69;5086417;28;20043;-68
2022/06/19 03:51:22;;;;;;;13.15;8.32;;;;;;;11.83;100.00;95479.56;5083442;28;20039;-68
2022/06/19 03:53:51;;;;;;;11.45;6.85;;;;;;;11.96;100.00;95482.00;5080974;28;20050;-68
2022/06/19 03:56:28;;;;;;;7.15;5.38;;;;;;;12.10;100.00;95468.72;5061944;28;20515;-68
2022/06/19 03:58:56;;;;;;;10.23;5.80;;;;;;;12.20;100.00;95474.22;5063220;28;20044;-68
2022/06/19 04:01:34;;;;;;;6.57;5.15;;;;;;;12.29;100.00;95478.09;5078729;28;20036;-68
2022/06/19 04:04:03;;;;;;;7.65;6.35;;;;;;;12.40;100.00;95473.88;5076616;28;20040;-67
2022/06/19 04:06:34;;;;;;;5.30;4.57;;;;;;;12.52;100.00;95476.53;5078799;28;20036;-69
2022/06/19 04:09:03;;;;;;;7.95;5.07;;;;;;;12.60;100.00;95478.78;5078922;28;20043;-68
2022/06/19 04:11:31;;;;;;;10.07;5.40;;;;;;;12.75;100.00;95484.34;5078759;28;20373;-68
2022/06/19 04:13:58;;;;;;;5.50;4.90;;;;;;;12.89;100.00;95481.50;5083190;28;20055;-68
2022/06/19 04:16:32;;;;;;;6.68;5.05;;;;;;;13.04;100.00;95481.81;5077509;28;20571;-68
2022/06/19 04:19:02;;;;;;;7.80;6.03;;;;;;;13.15;100.00;95470.53;5076455;28;20071;-69
2022/06/19 04:21:30;;;;;;;6.93;5.90;;;;;;;13.34;100.00;95484.31;5059824;28;20040;-69
2022/06/19 04:24:00;;;;;;;11.82;7.10;;;;;;;13.50;100.00;95485.38;5079004;28;20044;-69
2022/06/19 04:26:30;;;;;;;9.48;7.68;;;;;;;13.63;100.00;95475.66;5061207;28;20744;-68
2022/06/19 04:28:57;;;;;;;9.57;6.30;;;;;;;13.74;100.00;95473.00;5078229;28;20051;-69
2022/06/19 04:31:24;;;;;;;8.13;5.90;;;;;;;13.91;100.00;95483.50;5080871;28;20051;-69
2022/06/19 04:33:51;;;;;;;6.03;5.10;;;;;;;14.03;100.00;95480.81;5076109;28;20052;-69
2022/06/19 04:36:20;;;;;;;8.82;6.57;;;;;;;14.10;100.00;95478.06;5079849;28;20123;-68
2022/06/19 04:38:50;;;;;;;7.35;6.20;;;;;;;14.22;100.00;95489.25;5079442;28;20660;-69
2022/06/19 04:41:20;;;;;;;7.40;5.82;;;;;;;14.29;100.00;95479.41;5066548;28;20097;-79
2022/06/19 04:43:47;;;;;;;9.05;5.88;;;;;;;14.34;100.00;95470.84;5065995;28;20069;-78
2022/06/19 04:46:15;;;;;;;7.43;5.05;;;;;;;14.56;100.00;95483.22;5062618;28;20375;-78
2022/06/19 04:48:42;;;;;;;8.05;5.20;;;;;;;14.70;100.00;95485.28;5083071;28;20062;-72
2022/06/19 04:51:09;;;;;;;6.80;4.68;;;;;;;14.83;100.00;95483.38;5061574;28;20036;-69
2022/06/19 04:53:37;;;;;;;8.90;4.70;;;;;;;14.94;100.00;95485.09;5088628;28;20071;-68
2022/06/19 04:56:06;;;;;;;7.20;5.10;;;;;;;14.98;100.00;95480.97;5089336;28;20044;-68
2022/06/19 04:58:32;;;;;;;9.05;5.20;;;;;;;15.10;100.00;95484.25;5087387;28;20043;-69
2022/06/19 05:01:03;;;;;;;5.40;4.20;;;;;;;15.19;100.00;95489.09;5084903;28;20121;-69
2022/06/19 05:03:30;;;;;;;9.00;4.53;;;;;;;15.31;100.00;95489.78;5071768;28;20102;-69
2022/06/19 05:06:03;;;;;;;4.60;3.83;;;;;;;15.43;100.00;95493.06;5093113;28;20079;-68
2022/06/19 05:08:31;;;;;;;4.30;3.90;;;;;;;15.56;100.00;95491.91;5059209;28;20572;-68
2022/06/19 05:10:59;;;;;;;4.70;4.05;;;;;;;15.59;100.00;95490.59;5088796;28;20048;-68
2022/06/19 05:13:25;;;;;;;6.97;4.60;;;;;;;15.72;100.00;95479.72;5091889;28;20055;-69
2022/06/19 05:16:05;;;;;;;10.82;5.88;;;;;;;15.86;100.00;95485.41;5097456;28;20046;-69
2022/06/19 05:18:34;;;;;;;5.95;4.70;;;;;;;15.96;100.00;95489.97;5091540;28;20048;-69
2022/06/19 05:21:04;;;;;;;7.03;4.65;;;;;;;16.03;100.00;95498.44;5069963;28;20780;-68
2022/06/19 05:23:33;;;;;;;5.40;4.90;;;;;;;16.14;100.00;95494.88;5060099;28;20055;-68
2022/06/19 05:26:03;;;;;;;5.35;4.78;;;;;;;16.19;100.00;95489.66;5083434;28;20083;-68
2022/06/19 05:28:30;;;;;;;6.63;5.20;;;;;;;16.37;100.00;95490.34;5062300;28;20660;-69
2022/06/19 05:30:58;;;;;;;8.52;5.18;;;;;;;16.50;100.00;95489.91;5072322;28;20051;-67
2022/06/19 05:33:26;;;;;;;6.22;5.47;;;;;;;16.56;100.00;95488.88;5080425;28;21224;-68
2022/06/19 05:35:53;;;;;;;7.95;4.95;;;;;;;16.71;100.00;95496.09;5086033;28;20047;-68
2022/06/19 05:38:21;;;;;;;8.95;6.65;;;;;;;16.86;100.00;95508.59;5084552;28;20044;-68
2022/06/19 05:40:53;;;;;;;9.32;6.45;;;;;;;16.91;100.00;95506.00;5082216;28;20124;-67
2022/06/19 05:43:22;;;;;;;6.93;6.13;;;;;;;16.86;100.00;95495.44;5079416;28;20047;-68
2022/06/19 05:45:55;;;;;;;7.43;5.50;;;;;;;16.99;100.00;95502.88;5064323;28;20040;-67
2022/06/19 05:48:23;;;;;;;6.70;5.68;;;;;;;17.00;100.00;95501.84;5072790;28;20064;-68
2022/06/19 05:51:12;;;;;;;7.18;6.38;;;;;;;16.74;100.00;95500.06;5080619;28;20902;-67
2022/06/19 05:53:42;;;;;;;8.13;6.57;;;;;;;16.82;100.00;95503.00;5079692;28;20041;-69
2022/06/19 05:56:10;;;;;;;8.85;6.85;;;;;;;16.74;100.00;95500.06;5060775;28;20035;-67
2022/06/19 05:58:37;;;;;;;10.35;7.78;;;;;;;16.82;100.00;95497.75;5081159;28;20089;-69
2022/06/19 06:01:05;;;;;;;11.13;8.85;;;;;;;16.90;100.00;95496.50;5078664;28;20151;-69
2022/06/19 06:03:32;;;;;;;14.63;8.30;;;;;;;17.09;100.00;95501.38;5079977;28;20539;-69
2022/06/19 06:06:05;;;;;;;12.60;8.80;;;;;;;17.10;100.00;95497.66;5078494;28;20607;-68
2022/06/19 06:08:35;;;;;;;11.88;8.85;;;;;;;17.12;100.00;95485.03;5089353;28;20043;-68
2022/06/19 06:11:02;;;;;;;10.95;8.38;;;;;;;17.24;100.00;95488.25;5067675;28;20073;-71
2022/06/19 06:13:29;;;;;;;14.45;8.75;;;;;;;17.34;100.00;95488.31;5082717;28;20779;-69
2022/06/19 06:15:57;;;;;;;11.57;8.40;;;;;;;17.46;100.00;95505.72;5089220;28;20036;-69
2022/06/19 06:18:25;;;;;;;13.85;9.10;;;;;;;17.50;100.00;95494.44;5091396;28;20800;-69
2022/06/19 06:21:01;;;;;;;11.07;8.80;;;;;;;17.62;100.00;95498.69;5081774;28;20052;-75
2022/06/19 06:23:29;;;;;;;11.45;9.07;;;;;;;17.69;100.00;95502.66;5085684;28;20727;-73
2022/06/19 06:26:10;;;;;;;12.60;8.98;;;;;;;17.85;100.00;95503.50;5080850;28;20040;-72
2022/06/19 06:28:39;;;;;;;10.80;8.75;;;;;;;18.04;100.00;95501.19;5065321;28;20039;-68
2022/06/19 06:31:06;;;;;;;7.38;6.57;;;;;;;18.11;100.00;95507.00;5081779;28;20085;-68
2022/06/19 06:33:34;;;;;;;13.45;7.38;;;;;;;18.29;100.00;95508.34;5082578;28;20067;-68
2022/06/19 06:36:01;;;;;;;10.23;7.15;;;;;;;18.45;99.78;95511.75;5083629;28;20162;-66
2022/06/19 06:38:28;;;;;;;10.77;8.05;;;;;;;18.61;100.00;95503.84;5080610;28;20043;-66
2022/06/19 06:40:55;;;;;;;10.10;8.45;;;;;;;18.73;100.00;95496.44;5085034;28;20754;-69
2022/06/19 06:43:23;;;;;;;10.40;7.72;;;;;;;18.89;99.80;95505.94;5063974;28;20194;-68
2022/06/19 06:45:50;;;;;;;9.60;6.40;;;;;;;18.97;98.49;95501.97;5081574;28;20044;-70
2022/06/19 06:48:19;;;;;;;10.20;7.55;;;;;;;19.00;97.42;95496.16;5059435;28;20055;-70
2022/06/19 06:50:50;;;;;;;8.70;6.55;;;;;;;19.15;98.57;95495.31;5068943;28;20043;-66
2022/06/19 06:53:17;;;;;;;10.75;8.43;;;;;;;19.43;98.64;95493.13;5064011;28;20139;-68
2022/06/19 06:55:44;;;;;;;9.80;7.03;;;;;;;19.56;98.10;95489.13;5086960;28;20039;-70
2022/06/19 06:58:11;;;;;;;9.23;6.60;;;;;;;19.70;95.00;95487.47;5082882;28;20062;-70
2022/06/19 07:00:39;;;;;;;10.25;7.10;;;;;;;19.85;95.14;95494.53;5085895;28;20043;-70
2022/06/19 07:03:06;;;;;;;12.70;6.82;;;;;;;19.83;92.97;95492.16;5081884;28;20035;-70
2022/06/19 07:05:33;;;;;;;8.10;6.00;;;;;;;19.93;91.69;95485.22;5084882;28;20132;-70
2022/06/19 07:08:01;;;;;;;7.55;6.38;;;;;;;19.99;91.72;95479.66;5084647;28;20717;-70
2022/06/19 07:10:28;;;;;;;8.25;5.75;;;;;;;20.00;91.12;95486.50;5064258;28;20534;-66
2022/06/19 07:12:56;;;;;;;8.98;6.00;;;;;;;20.24;90.77;95475.25;5085407;28;20790;-65
2022/06/19 07:15:24;;;;;;;6.45;5.43;;;;;;;20.39;87.36;95472.47;5080331;28;20044;-66
2022/06/19 07:17:51;;;;;;;8.25;5.15;;;;;;;20.48;87.12;95469.25;5084960;28;20052;-66
2022/06/19 07:20:18;;;;;;;5.30;4.43;;;;;;;20.57;87.60;95467.56;5084671;28;20109;-66
2022/06/19 07:22:45;;;;;;;8.05;5.03;;;;;;;20.79;87.80;95467.91;5064241;28;20459;-67
2022/06/19 07:25:19;;;;;;;4.43;4.03;;;;;;;20.75;86.35;95464.25;5060717;28;20814;-66
2022/06/19 07:27:49;;;;;;;5.15;4.47;;;;;;;20.76;86.55;95465.84;5082290;28;20047;-73
2022/06/19 07:30:20;;;;;;;5.25;4.55;;;;;;;20.55;85.47;95464.41;5081357;28;20043;-72
2022/06/19 07:32:47;;;;;;;7.35;4.97;;;;;;;20.67;86.16;95446.34;5088796;28;20052;-75
2022/06/19 07:35:16;;;;;;;7.35;4.40;;;;;;;20.98;85.74;95453.97;5050376;28;20047;-73
2022/06/19 07:37:43;;;;;;;4.50;4.00;;;;;;;21.39;82.05;95464.06;5088228;28;20036;-73
2022/06/19 07:40:13;;;;;;;4.60;3.45;;;;;;;21.22;74.68;95471.72;5083079;28;20044;-73
2022/06/19 07:42:40;;;;;;;4.22;3.58;;;;;;;21.10;74.18;95449.03;5081703;28;20051;-73
2022/06/19 07:45:07;;;;;;;4.43;2.92;;;;;;;21.34;72.46;95459.66;5070958;28;20042;-75
2022/06/19 07:50:23;;;;;;;4.00;3.08;;;;;;;21.96;69.01;95464.94;5071486;28;20137;-73
2022/06/19 07:52:51;;;;;;;5.43;3.65;;;;;;;22.33;67.33;95468.66;5079793;28;20050;-74
2022/06/19 07:55:23;;;;;;;3.38;2.67;;;;;;;22.48;64.19;95464.19;5098998;28;20501;-67
2022/06/19 07:57:50;;;;;;;2.90;2.40;;;;;;;22.47;59.60;95467.91;5070297;28;20044;-68
2022/06/19 08:00:23;;;;;;;3.28;2.60;;;;;;;22.77;59.53;95468.47;5093176;28;20046;-69
2022/06/19 08:02:52;;;;;;;3.90;2.25;;;;;;;23.08;59.95;95466.88;5081874;28;20036;-69
2022/06/19 08:05:20;;;;;;;5.50;2.55;;;;;;;23.39;58.91;95471.59;5080541;28;20043;-69
2022/06/19 08:07:50;;;;;;;4.70;2.70;;;;;;;23.73;57.96;95470.34;5079832;28;20048;-69
2022/06/19 08:10:23;;;;;;;3.38;2.60;;;;;;;23.46;53.50;95471.97;5086113;28;20106;-69
2022/06/19 08:12:57;;;;;;;6.20;2.70;;;;;;;23.53;52.69;95460.16;5081549;28;20135;-70
2022/06/19 08:15:25;;;;;;;3.20;2.30;;;;;;;23.52;53.38;95455.94;5081930;28;20044;-68
2022/06/19 08:17:52;;;;;;;2.83;2.00;;;;;;;23.90;56.04;95459.09;5081755;28;20052;-69
2022/06/19 08:20:20;;;;;;;2.67;2.00;;;;;;;24.14;49.71;95468.69;5083096;28;20044;-69
2022/06/19 08:22:47;;;;;;;4.20;2.35;;;;;;;24.32;45.76;95464.28;5083590;28;20048;-68
2022/06/19 08:25:16;;;;;;;3.72;2.67;;;;;;;24.63;44.01;95458.22;5066308;28;20044;-69
2022/06/19 08:27:47;;;;;;;6.40;2.13;;;;;;;24.78;42.28;95458.63;5084132;28;20032;-69
2022/06/19 08:30:21;;;;;;;1.80;1.60;;;;;;;24.92;42.61;95455.88;5049702;28;20544;-69
2022/06/19 08:32:48;;;;;;;4.20;2.00;;;;;;;25.13;44.79;95450.75;5083427;28;20443;-66
2022/06/19 08:35:15;;;;;;;1.98;1.48;;;;;;;25.42;42.06;95456.69;5084378;28;20048;-66
2022/06/19 08:37:45;;;;;;;2.58;1.73;;;;;;;25.67;41.04;95461.28;5090185;28;20063;-66
2022/06/19 08:40:36;;;;;;;2.65;2.20;;;;;;;25.05;39.16;95459.53;5082158;28;20046;-66
2022/06/19 08:43:27;;;;;;;6.30;1.80;;;;;;;25.34;39.94;95455.56;5086012;28;20043;-66
2022/06/19 08:46:29;;;;;;;2.25;1.80;;;;;;;25.47;38.64;95448.53;5084242;28;20036;-66
2022/06/19 08:49:35;;;;;;;2.55;1.20;;;;;;;25.85;39.23;95458.63;5080959;28;20120;-67
2022/06/19 08:52:25;;;;;;;2.38;1.25;;;;;;;26.22;36.34;95445.81;5084520;28;20074;-67
2022/06/19 08:55:10;;;;;;;3.75;1.55;;;;;;;26.34;37.23;95443.25;5081482;28;20044;-67
2022/06/19 08:57:48;;;;;;;3.25;1.40;;;;;;;26.36;37.33;95445.59;5087105;28;20036;-67
2022/06/19 09:00:26;;;;;;;1.48;1.20;;;;;;;26.58;37.46;95449.97;5083420;28;20712;-67
2022/06/19 09:02:55;;;;;;;1.58;1.08;;;;;;;26.29;39.59;95454.13;5085783;28;20070;-65
2022/06/19 09:05:44;;;;;;;1.63;1.20;;;;;;;26.38;39.57;95449.53;5081196;28;20130;-68
2022/06/19 09:08:38;;;;;;;1.77;1.13;;;;;;;26.79;41.32;95444.75;5084036;28;20063;-69
2022/06/19 09:11:40;;;;;;;3.45;1.83;;;;;;;27.07;37.64;95426.41;5083390;28;20040;-69
2022/06/19 09:14:33;;;;;;;3.15;1.05;;;;;;;27.40;35.90;95450.63;5065768;28;20412;-69
2022/06/19 09:17:05;;;;;;;1.98;1.38;;;;;;;27.53;34.30;95456.06;5081396;28;20044;-70
2022/06/19 09:20:12;;;;;;;7.93;1.15;;;;;;;27.58;35.35;95443.28;5085955;28;20043;-69
2022/06/19 09:22:45;;;;;;;2.00;1.20;;;;;;;27.50;33.98;95446.81;5018208;28;20509;-68
2022/06/19 09:25:22;;;;;;;23.77;2.95;;;;;;;27.44;34.92;95437.41;5086521;28;20036;-69
2022/06/19 09:27:59;;;;;;;2.60;1.00;;;;;;;27.59;34.07;95441.41;5079705;28;20036;-69
2022/06/19 09:30:37;;;;;;;1.30;0.90;;;;;;;27.67;37.37;95437.88;5065964;28;20052;-69
2022/06/19 09:33:15;;;;;;;3.10;1.30;;;;;;;27.72;34.11;95428.88;5089023;27;20572;-69
2022/06/19 09:35:57;;;;;;;1.33;1.02;;;;;;;27.67;32.54;95426.41;5085146;28;20047;-68
2022/06/19 09:38:40;;;;;;;2.70;1.15;;;;;;;27.90;36.17;95424.19;5082299;28;20024;-69
2022/06/19 09:41:14;;;;;;;2.03;1.20;;;;;;;28.00;33.20;95440.66;5084007;28;20043;-70
2022/06/19 09:44:01;;;;;;;1.98;1.48;;;;;;;27.90;33.28;95427.66;5082342;28;20036;-69
2022/06/19 09:46:40;;;;;;;1.92;1.40;;;;;;;28.00;32.98;95434.50;5068916;28;20048;-69
2022/06/19 09:49:38;;;;;;;3.15;1.23;;;;;;;28.29;34.59;95425.59;5080279;28;20052;-70
2022/06/19 09:52:45;;;;;;;1.52;1.10;;;;;;;28.41;33.23;95417.63;5079050;28;20055;-68
2022/06/19 09:55:33;;;;;;;4.60;1.40;;;;;;;28.28;33.46;95440.09;5041590;28;20607;-68
2022/06/19 09:58:25;;;;;;;2.20;1.60;;;;;;;28.23;34.98;95429.59;5100583;27;20024;-68
2022/06/19 10:00:56;;;;;;;3.65;1.33;;;;;;;28.47;32.44;95436.13;5080870;28;20455;-70
2022/06/19 10:03:33;;;;;;;1.85;1.27;;;;;;;28.47;32.94;95436.13;5089438;28;20051;-68
2022/06/19 10:06:04;;;;;;;1.20;1.02;;;;;;;28.32;29.99;95440.22;5080689;28;20044;-70
2022/06/19 10:08:36;;;;;;;1.85;1.10;;;;;;;27.85;31.03;95431.28;5082543;28;20801;-68
2022/06/19 10:11:15;;;;;;;1.48;1.02;;;;;;;27.21;31.72;95429.66;5083347;28;20036;-68
2022/06/19 10:13:51;;;;;;;1.40;0.95;;;;;;;27.65;33.85;95427.50;5084751;28;20047;-69
2022/06/19 10:16:27;;;;;;;2.08;1.25;;;;;;;27.84;33.10;95415.59;5080778;28;20050;-69
2022/06/19 10:18:56;;;;;;;1.25;1.13;;;;;;;27.73;33.73;95419.75;5083577;28;20109;-67
2022/06/19 10:24:42;;;;;;;1.60;1.17;;;;;;;27.73;32.06;95409.03;5081296;28;20051;-68
2022/06/19 10:27:15;;;;;;;1.10;1.00;;;;;;;27.76;34.60;95408.38;5077978;28;20690;-68
2022/06/19 10:30:06;;;;;;;1.58;1.00;;;;;;;27.61;33.42;95402.50;5085150;28;20040;-69
2022/06/19 10:32:48;;;;;;;1.50;1.20;;;;;;;27.43;33.00;95403.75;5078341;28;20066;-69
2022/06/19 10:35:45;;;;;;;2.25;1.05;;;;;;;27.56;33.91;95397.34;5077573;28;20035;-69
2022/06/19 10:39:06;;;;;;;1.85;0.90;;;;;;;28.13;32.44;95395.22;5078963;28;20039;-68
2022/06/19 10:42:00;;;;;;;2.00;0.90;;;;;;;28.78;32.25;95384.75;5047334;28;20102;-68
2022/06/19 10:45:00;;;;;;;3.47;0.98;;;;;;;29.51;31.61;95391.22;5080649;28;20133;-68
2022/06/19 10:48:12;;;;;;;1.23;1.00;;;;;;;30.17;29.57;95406.13;5080539;28;20119;-67
2022/06/19 10:50:51;;;;;;;1.20;0.77;;;;;;;30.71;28.93;95401.41;5040128;28;20083;-69
2022/06/19 10:53:35;;;;;;;1.88;0.57;;;;;;;31.06;28.10;95406.84;5066779;28;20123;-69
2022/06/19 10:56:24;;;;;;;4.25;0.90;;;;;;;31.28;26.22;95402.78;5087563;28;20516;-67
2022/06/19 10:58:51;;;;;;;1.40;1.00;;;;;;;30.91;25.23;95392.28;5080728;28;20055;-68
2022/06/19 11:04:18;;;;;;;3.17;1.00;;;;;;;31.49;28.32;95396.31;5052672;28;20355;-68
2022/06/19 11:07:10;;;;;;;1.90;1.00;;;;;;;31.47;25.23;95398.56;5084368;28;20056;-69
2022/06/19 11:09:50;;;;;;;1.08;0.70;;;;;;;31.17;25.63;95396.34;5065977;28;20048;-68
2022/06/19 11:12:43;;;;;;;2.85;0.75;;;;;;;30.74;25.45;95396.09;5064285;28;20496;-67
2022/06/19 11:15:32;;;;;;;0.60;0.40;;;;;;;30.60;26.89;95399.22;5084469;28;20047;-69
2022/06/19 11:18:21;;;;;;;1.48;0.70;;;;;;;29.60;26.24;95388.41;5083011;28;20059;-68
2022/06/19 11:21:00;;;;;;;1.75;0.80;;;;;;;29.49;27.29;95383.50;5064441;28;20130;-68
2022/06/19 11:23:30;;;;;;;1.30;0.85;;;;;;;29.53;27.92;95384.41;5082720;28;20063;-68
2022/06/19 11:26:05;;;;;;;0.80;0.80;;;;;;;29.60;28.26;95388.41;5062341;28;20139;-69
2022/06/19 11:28:47;;;;;;;3.72;0.75;;;;;;;29.46;27.68;95389.56;5082980;28;20132;-68
2022/06/19 11:31:17;;;;;;;1.08;0.90;;;;;;;29.06;28.76;95376.81;5062616;28;20134;-68
2022/06/19 11:33:46;;;;;;;2.85;0.82;;;;;;;28.76;29.21;95374.38;5082876;28;20059;-68
2022/06/19 11:36:51;;;;;;;2.60;1.08;;;;;;;28.35;29.00;95369.94;5080724;28;21611;-70
2022/06/19 11:39:38;;;;;;;1.08;0.80;;;;;;;28.78;30.56;95366.78;4979861;28;20079;-70
2022/06/19 11:42:28;;;;;;;3.58;0.70;;;;;;;29.51;28.64;95365.19;4976066;28;20042;-70
2022/06/19 11:45:17;;;;;;;1.98;0.68;;;;;;;30.29;29.74;95363.09;5062843;28;20048;-70
2022/06/19 11:47:56;;;;;;;3.10;0.90;;;;;;;30.94;27.80;95367.41;5047746;28;20050;-70
2022/06/19 11:50:32;;;;;;;1.30;0.80;;;;;;;30.88;28.06;95364.19;5086627;28;21232;-67
2022/06/19 11:53:05;;;;;;;1.10;0.80;;;;;;;30.90;28.01;95361.16;5081503;28;20052;-68
2022/06/19 11:55:36;;;;;;;2.00;0.80;;;;;;;30.86;25.44;95338.75;5059271;28;20048;-68
2022/06/19 11:58:21;;;;;;;5.85;2.42;;;;;;;30.97;27.83;95350.59;5080225;28;21884;-68
2022/06/19 12:01:06;;;;;;;2.17;0.90;;;;;;;31.38;24.92;95353.75;5083090;28;20054;-69
2022/06/19 12:03:43;;;;;;;2.00;0.70;;;;;;;31.74;24.27;95354.53;5081007;28;20069;-69